x

Jonesport, Me - 20 Nm Se Of Jonesport, Me (44027) Wave Buoy

10:50pm - Sat 20th Dec 2014 All times are AST. -4 hours from GMT.

  • Sig Wave height 3.3ft
  • Peak Period 5s
  • Average Period 4s
  • Wind
    18mph, 22mph gusts
  • Sea Temp 49°f
  • Air Temp 36°f
  • Sea Pressure 1025.4mb
  • Jonesport, Me - 20 Nm Se Of Jonesport, Me
  • Jonesport, Me - 20 Nm Se Of Jonesport, Me

More Historic Weather Station data

Upgrade to MSW Pro to gain access to the past 30 days of data for over 8000 Wavebouys and Weather Stations around the globe.

Join Pro

Comparision Forecast

View Surf forecast
   
Sat 12/20 10:50pm 3.5ft 5s 4s 18 22 mph 1025.4mb 49f 36f
9:50pm 3.5ft 5s 4s 18 22 mph 1025.3mb 48f 36f
8:50pm 3.5ft 5s 4s 18 22 mph 1025.2mb 48f 36f
7:50pm 3ft 5s 4s 20 25 mph 1025.4mb 48f 36f
6:50pm 3ft 4s 4s 18 25 mph 1025.4mb 48f 36f
5:50pm 3ft 4s 4s 18 25 mph 1025.2mb 48f 35f
4:50pm 3ft 4s 4s 18 22 mph 1024.6mb 48f 34f
3:50pm 3ft 4s 4s 18 22 mph 1024.3mb 48f 33f
2:50pm 3.5ft 4s 4s 20 25 mph 1024.3mb 48f 33f
1:50pm 3.5ft 5s 4s 22 27 mph 1024mb 48f 33f
12:50pm 3.5ft 6s 4s 20 25 mph 1024mb 48f 34f
11:50am 3.5ft 5s 4s 13 18 mph 1024.5mb 48f 34f
10:50am 4.5ft 5s 4s 18 20 mph 1024.4mb 48f 33f
9:50am 4.5ft 5s 4s 20 27 mph 1023.7mb 48f 32f
8:50am 4.5ft 5s 5s 20 27 mph 1023mb 48f 32f
7:50am 4.5ft 5s 4s 22 27 mph 1022.4mb 48f 32f
6:50am 4.5ft 6s 4s 20 25 mph 1022mb 48f 33f
5:50am 4ft 6s 4s 18 27 mph 1021.5mb 48f 33f
4:50am 4ft 5s 4s 20 25 mph 1020.5mb 48f 33f
3:50am 4ft 4s 4s 18 25 mph 1020.1mb 48f 33f
2:50am 3.5ft 4s 4s 20 25 mph 1019.6mb 48f 32f
1:50am 3.5ft 4s 4s 20 27 mph 1018.6mb 47f 33f
12:50am 3.5ft 5s 4s 20 27 mph 1017.8mb 48f 33f
Fri 12/19 11:50pm 4ft 5s 4s 22 27 mph 1016.9mb 48f 33f
10:50pm 4.5ft 5s 4s 22 29 mph 1016.4mb 48f 33f
9:50pm 4ft 5s 4s 25 29 mph 1015.4mb 48f 33f
8:50pm 4ft 5s 4s 22 29 mph 1014.9mb 48f 34f
7:50pm 4ft 4s 4s 22 29 mph 1014.2mb 47f 33f
6:50pm 3.5ft 5s 4s 22 27 mph 1013.4mb 47f 33f
5:50pm 3.5ft 4s 4s 20 25 mph 1012.7mb 47f 32f
4:50pm 3.5ft 4s 4s 20 27 mph 1012mb 47f 32f
3:50pm 3.5ft 4s 4s 20 25 mph 1011.1mb 47f 32f
2:50pm 3.5ft 4s 4s 20 27 mph 1010.6mb 47f 32f
1:50pm 3.5ft 4s 4s 20 27 mph 1010.1mb 47f 31f
12:50pm 3.5ft 4s 4s 20 27 mph 1009.4mb 47f 31f
11:50am 4.5ft 4s 4s 20 27 mph 1009.7mb 48f 32f
10:50am 4.5ft 4s 4s 20 27 mph 1009.7mb 48f 31f
9:50am 4.5ft 5s 4s 22 29 mph 1009mb 48f 31f
8:50am 4.5ft 5s 4s 22 29 mph 1008.3mb 48f 31f
7:50am 5ft 5s 5s 25 31 mph 1007.4mb 48f 32f
6:50am 5ft 6s 5s 22 29 mph 1006.3mb 48f 33f
5:50am 5ft 5s 4s 25 29 mph 1006mb 47f 33f
4:50am 5ft 5s 5s 25 34 mph 1005.6mb 47f 33f
3:50am 5ft 5s 5s 27 34 mph 1005.4mb 47f 33f
2:50am 5ft 6s 5s 27 34 mph 1005.4mb 47f 33f
1:50am 5.5ft 6s 5s 27 36 mph 1004.6mb 47f 33f
12:50am 5.5ft 7s 5s 27 36 mph 1004.1mb 48f 34f
Thu 12/18 11:50pm 6ft 6s 5s 29 36 mph 1003.6mb 48f 34f
10:50pm 5.5ft 6s 5s 29 36 mph 1003mb 49f 35f
9:50pm 5.5ft 6s 5s 29 36 mph 1002.8mb 49f 35f
8:50pm 7ft 6s 5s 29 38 mph 1002.6mb 49f 35f
7:50pm 6ft 6s 5s 29 38 mph 1002mb 49f 35f
6:50pm 6.5ft 6s 5s 29 38 mph 1001.2mb 49f 35f
5:50pm 6ft 6s 5s 29 38 mph 1000.7mb 49f 35f
4:50pm 6ft 5s 5s 29 36 mph 1000.6mb 49f 35f
3:50pm 4.5ft 5s 5s 25 29 mph 1000.1mb 49f 35f
2:50pm 4.5ft 4s 4s 27 34 mph 999.6mb 49f 36f
1:50pm 4.5ft 5s 4s 25 29 mph 999.3mb 49f 35f
12:50pm 4.5ft 4s 4s 25 31 mph 999.2mb 49f 35f
11:50am 4.5ft 4s 4s 25 29 mph 999.1mb 49f 35f
10:50am 5ft 5s 5s 25 29 mph 999.4mb 49f 35f
9:50am 5ft 5s 5s 22 27 mph 999.1mb 49f 35f
8:50am 5ft 8s 5s 22 29 mph 998.5mb 49f 35f
7:50am 5ft 7s 5s 22 27 mph 998.2mb 49f 35f
6:50am 5ft 8s 5s 20 25 mph 998.2mb 49f 35f
5:50am 4.5ft 7s 5s 20 25 mph 997.7mb 49f 36f
4:50am 4.5ft 5s 5s 22 25 mph 997.7mb 49f 36f
3:50am 5ft 8s 5s 22 27 mph 997.6mb 49f 37f
2:50am 6ft 5s 5s 22 25 mph 997.6mb 49f 38f
1:50am 7ft 6s 5s 25 29 mph 997.1mb 49f 40f
12:50am 7.5ft 6s 5s 27 29 mph 996.6mb 49f 42f
Wed 12/17 11:50pm 7.5ft 6s 5s 27 31 mph 996.9mb 49f 44f
10:50pm 8.5ft 7s 5s 29 34 mph 997.6mb 49f 44f
9:50pm 8.5ft 6s 5s 29 34 mph 998.6mb 49f 44f
8:50pm 9ft 6s 5s 25 29 mph 1000.1mb 49f 44f
7:50pm 8ft 6s 5s 25 31 mph 1001.4mb 49f 44f
6:50pm 8ft 6s 5s 25 31 mph 1001.9mb 49f 44f
5:50pm 8ft 6s 5s 29 34 mph 1002.5mb 49f 43f
4:50pm 7ft 6s 5s 29 36 mph 1003mb 49f 44f
3:50pm 8ft 6s 5s 29 36 mph 1004mb 49f 43f
2:50pm 7ft 5s 5s 29 34 mph 1005.1mb 49f 43f
1:50pm 5.5ft 6s 5s 27 34 mph 1006.8mb 49f 43f
12:50pm 6ft 6s 5s 27 31 mph 1008.1mb 49f 42f
11:50am 6ft 6s 5s 27 31 mph 1009.7mb 49f 43f
10:50am 5.5ft 5s 5s 27 31 mph 1010.7mb 49f 42f
9:50am 5ft 6s 5s 25 29 mph 1012.1mb 49f 42f
8:50am 5.5ft 6s 5s 25 29 mph 1012.1mb 49f 42f
7:50am 5ft 5s 4s 22 27 mph 1012.9mb 49f 42f
6:50am 5ft 6s 4s 22 27 mph 1013.2mb 49f 42f
5:50am 4.5ft 5s 4s 20 25 mph 1013.4mb 49f 43f
4:50am 4.5ft 5s 4s 20 25 mph 1014.3mb 49f 43f
3:50am 4ft 5s 4s 20 25 mph 1015.2mb 49f 42f